createdAt,value
2019-05-21T00:02:11.789Z,100952.13
2019-05-21T00:04:39.405Z,100953.81
2019-05-21T00:07:07.140Z,100949.36
2019-05-21T00:09:34.197Z,100938.81
2019-05-21T00:12:01.310Z,100943.72
2019-05-21T00:14:28.663Z,100941.94
2019-05-21T00:16:55.735Z,100948.02
2019-05-21T00:19:22.812Z,100948.16
2019-05-21T00:21:49.874Z,100943.17
2019-05-21T00:24:17.055Z,100941.42
2019-05-21T00:26:44.148Z,100946.27
2019-05-21T00:29:47.656Z,100944.03
2019-05-21T00:32:51.402Z,100940.94
2019-05-21T00:35:55.506Z,100940.11
2019-05-21T00:38:59.469Z,100933.45
2019-05-21T00:42:03.344Z,100930.84
2019-05-21T00:44:36.906Z,100938.30
2019-05-21T00:47:05.535Z,100940.51
2019-05-21T00:49:32.687Z,100938.70
2019-05-21T00:52:08.454Z,100940.48
2019-05-21T00:54:35.474Z,100944.00
2019-05-21T00:57:02.642Z,100940.51
2019-05-21T00:59:29.692Z,100947.12
2019-05-21T01:01:56.776Z,100939.19
2019-05-21T01:04:23.839Z,100950.22
2019-05-21T01:06:53.634Z,100943.60
2019-05-21T01:09:20.765Z,100941.39
2019-05-21T01:11:47.820Z,100938.27
2019-05-21T01:14:14.875Z,100942.28
2019-05-21T01:16:41.969Z,100937.47
2019-05-21T01:19:09.023Z,100939.19
2019-05-21T01:21:36.102Z,100934.74
2019-05-21T01:24:03.327Z,100933.86
2019-05-21T01:26:36.647Z,100933.37
2019-05-21T01:29:06.484Z,100925.91
2019-05-21T01:31:33.645Z,100918.92
2019-05-21T01:34:00.716Z,100921.99
2019-05-21T01:36:30.058Z,100920.64
2019-05-21T01:38:57.103Z,100914.51
2019-05-21T01:41:25.752Z,100914.56
2019-05-21T01:43:52.961Z,100914.14
2019-05-21T01:46:21.629Z,100909.30
2019-05-21T01:48:52.808Z,100907.06
2019-05-21T01:51:20.044Z,100903.62
2019-05-21T01:53:47.146Z,100904.08
2019-05-21T01:56:14.305Z,100893.50
2019-05-21T01:58:41.398Z,100898.86
2019-05-21T02:01:10.236Z,100898.41
2019-05-21T02:03:37.303Z,100893.09
2019-05-21T02:06:04.395Z,100900.98
2019-05-21T02:08:31.458Z,100899.63
2019-05-21T02:10:58.524Z,100896.16
2019-05-21T02:13:25.883Z,100896.57
2019-05-21T02:15:52.949Z,100901.09
2019-05-21T02:18:20.023Z,100900.15
2019-05-21T02:20:48.285Z,100900.17
2019-05-21T02:23:15.339Z,100907.14
2019-05-21T02:25:42.436Z,100911.19
2019-05-21T02:28:09.492Z,100904.97
2019-05-21T02:30:36.579Z,100911.98
2019-05-21T02:33:03.652Z,100900.58
2019-05-21T02:35:30.766Z,100911.53
2019-05-21T02:37:58.019Z,100910.27
2019-05-21T02:40:25.077Z,100909.84
2019-05-21T02:42:52.342Z,100909.87
2019-05-21T02:45:19.531Z,100906.34
2019-05-21T02:47:46.628Z,100909.00
2019-05-21T02:50:14.182Z,100917.75
2019-05-21T02:52:41.287Z,100923.45
2019-05-21T02:55:09.047Z,100929.22
2019-05-21T02:57:42.169Z,100929.22
2019-05-21T03:00:31.569Z,100944.16
2019-05-21T03:02:58.808Z,100943.27
2019-05-21T03:05:25.842Z,100936.75
2019-05-21T03:07:52.944Z,100934.06
2019-05-21T03:10:19.991Z,100944.20
2019-05-21T03:12:47.047Z,100948.16
2019-05-21T03:15:14.134Z,100937.64
2019-05-21T03:17:41.222Z,100939.39
2019-05-21T03:20:10.074Z,100946.81
2019-05-21T03:22:37.201Z,100949.52
2019-05-21T03:25:05.296Z,100961.41
2019-05-21T03:27:32.360Z,100960.52
2019-05-21T03:29:59.439Z,100956.53
2019-05-21T03:32:26.493Z,100961.34
2019-05-21T03:34:55.947Z,100958.25
2019-05-21T03:37:24.934Z,100960.49
2019-05-21T03:39:52.252Z,100960.92
2019-05-21T03:42:19.303Z,100964.91
2019-05-21T03:44:58.965Z,100962.20
2019-05-21T03:47:15.491Z,100963.53
2019-05-21T03:50:02.219Z,100971.90
2019-05-21T03:52:29.303Z,100974.08
2019-05-21T03:54:56.358Z,100979.38
2019-05-21T03:57:23.460Z,100979.93
2019-05-21T03:59:50.596Z,100973.28
2019-05-21T04:02:17.646Z,100974.97
2019-05-21T04:04:44.747Z,100977.17
2019-05-21T04:07:11.820Z,100982.08
2019-05-21T04:09:38.900Z,100977.66
2019-05-21T04:12:05.984Z,100983.37
2019-05-21T04:14:40.932Z,100980.79
2019-05-21T04:17:25.303Z,100984.23
2019-05-21T04:19:52.357Z,100989.50
2019-05-21T04:22:19.543Z,100984.34
2019-05-21T04:24:46.630Z,100985.67
2019-05-21T04:27:14.002Z,100993.03
2019-05-21T04:29:41.063Z,100992.14
2019-05-21T04:32:08.154Z,100990.88
2019-05-21T04:34:35.216Z,101001.43
2019-05-21T04:37:10.981Z,100994.90
2019-05-21T04:39:31.286Z,100990.02
2019-05-21T04:41:58.348Z,100990.02
2019-05-21T04:44:25.472Z,100995.81
2019-05-21T04:46:53.589Z,100999.77
2019-05-21T04:49:20.665Z,100993.64
2019-05-21T04:51:47.754Z,100996.70
2019-05-21T04:54:14.865Z,101000.63
2019-05-21T04:56:41.940Z,101008.61
2019-05-21T04:59:09.135Z,101004.22
2019-05-21T05:01:36.312Z,101003.33
2019-05-21T05:04:03.392Z,101002.50
2019-05-21T05:06:30.591Z,101007.77
2019-05-21T05:08:59.452Z,101012.20
2019-05-21T05:11:26.510Z,101019.68
2019-05-21T05:13:53.813Z,101019.28
2019-05-21T05:16:21.964Z,101021.45
2019-05-21T05:18:49.276Z,101013.97
2019-05-21T05:21:16.378Z,101018.36
2019-05-21T05:23:43.466Z,101027.16
2019-05-21T05:26:10.523Z,101026.36
2019-05-21T05:28:37.624Z,101027.19
2019-05-21T05:31:04.745Z,101033.76
2019-05-21T05:33:31.908Z,101021.45
2019-05-21T05:36:00.818Z,101027.05
2019-05-21T05:38:27.890Z,101019.44
2019-05-21T05:40:54.956Z,101033.94
2019-05-21T05:43:22.105Z,101029.40
2019-05-21T05:45:49.243Z,101022.87
2019-05-21T05:48:16.791Z,101024.95
2019-05-21T05:50:46.156Z,101015.99
2019-05-21T05:53:13.341Z,101029.14
2019-05-21T05:55:41.505Z,101023.87
2019-05-21T05:58:09.835Z,101022.48
2019-05-21T06:00:37.315Z,101025.12
2019-05-21T06:03:04.518Z,101028.12
2019-05-21T06:05:31.653Z,101034.36
2019-05-21T06:08:00.342Z,101036.40
2019-05-21T06:10:27.715Z,101036.86
2019-05-21T06:12:54.852Z,101034.98
2019-05-21T06:15:23.133Z,101033.59
2019-05-21T06:17:50.225Z,101038.44
2019-05-21T06:20:18.499Z,101041.11
2019-05-21T06:22:45.689Z,101045.06
2019-05-21T06:25:13.364Z,101051.89
2019-05-21T06:27:40.535Z,101064.94
2019-05-21T06:30:08.137Z,101065.43
2019-05-21T06:32:35.127Z,101073.20
2019-05-21T06:35:02.113Z,101072.41
2019-05-21T06:37:29.048Z,101072.09
2019-05-21T06:39:56.036Z,101077.16
2019-05-21T06:42:23.021Z,101078.15
2019-05-21T06:44:51.417Z,101074.30
2019-05-21T06:47:18.402Z,101082.50
2019-05-21T06:49:45.392Z,101082.50
2019-05-21T06:52:12.370Z,101085.20
2019-05-21T06:54:39.328Z,101090.48
2019-05-21T06:57:06.318Z,101101.05
2019-05-21T06:59:33.287Z,101116.84
2019-05-21T07:02:00.246Z,101113.70
2019-05-21T07:04:27.228Z,101110.67
2019-05-21T07:06:54.167Z,101111.53
2019-05-21T07:09:21.127Z,101123.83
2019-05-21T07:11:48.250Z,101122.44
2019-05-21T07:14:15.230Z,101135.61
2019-05-21T07:16:42.181Z,101136.22
2019-05-21T07:19:09.171Z,101134.41
2019-05-21T07:21:36.160Z,101134.72
2019-05-21T07:24:03.230Z,101140.06
2019-05-21T07:26:30.240Z,101134.22
2019-05-21T07:28:57.538Z,101139.75
2019-05-21T07:31:24.592Z,101141.49
2019-05-21T07:33:51.645Z,101137.04
2019-05-21T07:36:18.628Z,101136.00
2019-05-21T07:38:53.099Z,101133.16
2019-05-21T07:41:15.340Z,101136.19
2019-05-21T07:43:42.339Z,101141.06
2019-05-21T07:46:09.267Z,101148.66
2019-05-21T07:48:36.260Z,101154.28
2019-05-21T07:51:03.283Z,101154.67
2019-05-21T07:53:30.300Z,101165.19
2019-05-21T07:55:58.900Z,101162.63
2019-05-21T07:58:25.862Z,101169.22
2019-05-21T08:00:52.800Z,101160.48
2019-05-21T08:03:19.773Z,101171.95
2019-05-21T08:05:46.708Z,101168.17
2019-05-21T08:08:13.651Z,101176.80
2019-05-21T08:10:40.646Z,101171.14
2019-05-21T08:13:07.694Z,101175.73
2019-05-21T08:15:34.628Z,101171.67
2019-05-21T08:18:01.608Z,101179.19
2019-05-21T08:20:28.909Z,101171.84
2019-05-21T08:22:55.852Z,101176.20
2019-05-21T08:25:22.823Z,101178.05
2019-05-21T08:27:50.028Z,101174.27
2019-05-21T08:30:17.088Z,101174.62
2019-05-21T08:32:44.268Z,101173.80
2019-05-21T08:35:11.705Z,101181.69
2019-05-21T08:37:38.643Z,101176.44
2019-05-21T08:40:06.055Z,101184.85
2019-05-21T08:42:33.119Z,101174.36
2019-05-21T08:45:00.217Z,101177.50
2019-05-21T08:47:27.325Z,101174.57
2019-05-21T08:49:54.261Z,101178.63
2019-05-21T08:52:21.247Z,101179.48
2019-05-21T08:54:50.990Z,101182.69
2019-05-21T08:57:18.396Z,101177.38
2019-05-21T08:59:45.665Z,101183.19
2019-05-21T09:02:12.902Z,101197.17
2019-05-21T09:04:46.339Z,101180.44
2019-05-21T09:07:08.911Z,101191.03
2019-05-21T09:09:49.399Z,101193.27
2019-05-21T09:12:06.761Z,101194.77
2019-05-21T09:14:34.975Z,101206.86
2019-05-21T09:17:01.935Z,101205.22
2019-05-21T09:19:28.898Z,101215.20
2019-05-21T09:21:55.879Z,101221.48
2019-05-21T09:24:24.769Z,101220.20
2019-05-21T09:26:52.934Z,101219.34
2019-05-21T09:29:22.342Z,101218.88
2019-05-21T09:31:49.425Z,101225.08
2019-05-21T09:34:16.395Z,101223.76
2019-05-21T09:36:43.336Z,101223.10
2019-05-21T09:39:10.297Z,101228.25
2019-05-21T09:41:37.283Z,101231.02
2019-05-21T09:44:04.222Z,101232.30
2019-05-21T09:46:31.192Z,101233.72
2019-05-21T09:48:59.205Z,101237.75
2019-05-21T09:51:26.186Z,101245.56
2019-05-21T09:53:53.291Z,101247.35
2019-05-21T09:56:32.859Z,101251.02
2019-05-21T09:59:05.999Z,101243.55
2019-05-21T10:01:39.739Z,101248.77
2019-05-21T10:04:06.698Z,101248.44
2019-05-21T10:06:33.783Z,101255.50
2019-05-21T10:09:00.846Z,101248.84
2019-05-21T10:11:27.843Z,101247.52
2019-05-21T10:13:56.538Z,101258.80
2019-05-21T10:16:23.503Z,101263.72
2019-05-21T10:18:52.276Z,101260.05
2019-05-21T10:21:19.353Z,101270.35
2019-05-21T10:23:48.294Z,101272.03
2019-05-21T10:26:15.255Z,101269.36
2019-05-21T10:28:42.258Z,101275.47
2019-05-21T10:31:09.227Z,101276.88
2019-05-21T10:33:36.155Z,101272.62
2019-05-21T10:36:04.983Z,101273.06
2019-05-21T10:38:31.932Z,101269.56
2019-05-21T10:40:58.901Z,101277.55
2019-05-21T10:43:25.922Z,101279.34
2019-05-21T10:45:53.023Z,101276.70
2019-05-21T10:48:19.958Z,101277.28
2019-05-21T10:50:47.034Z,101280.89
2019-05-21T10:53:14.293Z,101279.23
2019-05-21T10:55:41.348Z,101294.65
2019-05-21T10:58:08.302Z,101292.50
2019-05-21T11:00:35.435Z,101295.55
2019-05-21T11:03:07.422Z,101291.55
2019-05-21T11:05:36.593Z,101302.97
2019-05-21T11:08:22.989Z,101293.63
2019-05-21T11:10:34.341Z,101297.52
2019-05-21T11:13:01.324Z,101298.55
2019-05-21T11:15:28.465Z,101306.47
2019-05-21T11:18:09.528Z,101311.29
2019-05-21T11:20:24.290Z,101312.97
2019-05-21T11:22:58.513Z,101307.72
2019-05-21T11:25:25.625Z,101317.92
2019-05-21T11:27:52.582Z,101308.97
2019-05-21T11:30:19.996Z,101321.95
2019-05-21T11:32:48.046Z,101329.24
2019-05-21T11:35:17.791Z,101331.56
2019-05-21T11:37:47.817Z,101324.49
2019-05-21T11:40:15.858Z,101329.77
2019-05-21T11:42:42.838Z,101328.45
2019-05-21T11:45:09.820Z,101332.42
2019-05-21T11:47:36.792Z,101338.66
2019-05-21T11:50:07.615Z,101331.73
2019-05-21T11:52:34.581Z,101335.06
2019-05-21T11:55:01.634Z,101324.27
2019-05-21T11:57:28.680Z,101340.38
2019-05-21T11:59:55.661Z,101334.33
2019-05-21T12:02:22.610Z,101341.80
2019-05-21T12:04:49.586Z,101342.86
2019-05-21T12:07:16.631Z,101337.44
2019-05-21T12:09:43.630Z,101344.04
2019-05-21T12:12:10.611Z,101344.53
2019-05-21T12:14:37.565Z,101344.50
2019-05-21T12:17:04.913Z,101353.02
2019-05-21T12:19:32.002Z,101370.30
2019-05-21T12:21:58.953Z,101363.16
2019-05-21T12:24:27.586Z,101360.62
2019-05-21T12:26:54.815Z,101361.52
2019-05-21T12:29:21.765Z,101364.39
2019-05-21T12:31:48.757Z,101371.42
2019-05-21T12:34:15.708Z,101372.58
2019-05-21T12:36:42.667Z,101377.63
2019-05-21T12:39:14.251Z,101378.92
2019-05-21T12:41:38.578Z,101375.84
2019-05-21T12:44:05.689Z,101382.63
2019-05-21T12:46:32.650Z,101375.59
2019-05-21T12:48:59.783Z,101373.97
2019-05-21T12:51:26.804Z,101384.41
2019-05-21T12:53:53.963Z,101391.05
2019-05-21T12:56:20.971Z,101384.47
2019-05-21T12:58:47.999Z,101388.96
2019-05-21T13:01:14.977Z,101390.41
2019-05-21T13:03:41.966Z,101387.47
2019-05-21T13:06:08.934Z,101386.91
2019-05-21T13:08:35.891Z,101382.21
2019-05-21T13:11:03.193Z,101393.98
2019-05-21T13:13:30.210Z,101390.45
2019-05-21T13:15:57.151Z,101398.83
2019-05-21T13:18:24.441Z,101399.73
2019-05-21T13:20:51.389Z,101402.90
2019-05-21T13:23:18.322Z,101403.89
2019-05-21T13:25:45.293Z,101407.39
2019-05-21T13:28:12.231Z,101409.63
2019-05-21T13:30:39.316Z,101404.97
2019-05-21T13:33:06.314Z,101399.34
2019-05-21T13:35:35.598Z,101403.73
2019-05-21T13:38:02.551Z,101408.62
2019-05-21T13:40:30.940Z,101409.55
2019-05-21T13:42:58.360Z,101416.98
2019-05-21T13:45:25.323Z,101418.34
2019-05-21T13:47:52.307Z,101412.66
2019-05-21T13:50:19.263Z,101409.18
2019-05-21T13:52:46.436Z,101412.72
2019-05-21T13:55:13.642Z,101417.97
2019-05-21T13:57:41.013Z,101418.00
2019-05-21T14:00:13.174Z,101423.23
2019-05-21T14:02:40.284Z,101422.80
2019-05-21T14:05:08.593Z,101417.20
2019-05-21T14:07:35.531Z,101429.02
2019-05-21T14:10:13.931Z,101426.86
2019-05-21T14:12:39.140Z,101426.80
2019-05-21T14:15:06.410Z,101435.19
2019-05-21T14:17:33.360Z,101432.42
2019-05-21T14:20:00.336Z,101434.77
2019-05-21T14:22:27.307Z,101430.70
2019-05-21T14:24:54.316Z,101438.70
2019-05-21T14:27:21.268Z,101435.69
2019-05-21T14:29:50.701Z,101435.41
2019-05-21T14:32:17.681Z,101443.28
2019-05-21T14:35:00.265Z,101443.78
2019-05-21T14:37:14.041Z,101444.67
2019-05-21T14:39:41.200Z,101441.62
2019-05-21T14:42:08.436Z,101442.97
2019-05-21T14:44:35.619Z,101450.14
2019-05-21T14:47:02.913Z,101446.87
2019-05-21T14:49:30.102Z,101457.00
2019-05-21T14:51:57.256Z,101456.14
2019-05-21T14:54:26.955Z,101454.30
2019-05-21T14:56:53.414Z,101465.80
2019-05-21T14:59:20.408Z,101460.57
2019-05-21T15:01:47.398Z,101466.69
2019-05-21T15:04:14.538Z,101468.02
2019-05-21T15:06:41.791Z,101464.47
2019-05-21T15:09:08.763Z,101467.19
2019-05-21T15:11:37.586Z,101466.17
2019-05-21T15:14:04.574Z,101464.41
2019-05-21T15:16:31.579Z,101468.75
2019-05-21T15:18:58.563Z,101472.28
2019-05-21T15:21:30.012Z,101466.13
2019-05-21T15:23:57.163Z,101473.11
2019-05-21T15:26:24.568Z,101476.25
2019-05-21T15:28:51.547Z,101485.94
2019-05-21T15:31:26.015Z,101480.19
2019-05-21T15:33:53.292Z,101487.39
2019-05-21T15:36:20.223Z,101490.86
2019-05-21T15:38:50.734Z,101485.51
2019-05-21T15:41:17.729Z,101484.98
2019-05-21T15:43:46.054Z,101485.31
2019-05-21T15:46:13.021Z,101483.53
2019-05-21T15:48:40.032Z,101487.98
2019-05-21T15:51:07.378Z,101493.25
2019-05-21T15:53:34.348Z,101489.41
2019-05-21T15:56:01.325Z,101489.84
2019-05-21T15:58:28.286Z,101493.34
2019-05-21T16:00:55.279Z,101494.60
2019-05-21T16:03:22.230Z,101499.39
2019-05-21T16:05:49.273Z,101497.67
2019-05-21T16:08:16.257Z,101497.61
2019-05-21T16:10:43.355Z,101500.32
2019-05-21T16:13:10.459Z,101502.63
2019-05-21T16:15:37.469Z,101496.48
2019-05-21T16:18:04.483Z,101491.63
2019-05-21T16:20:31.448Z,101499.27
2019-05-21T16:22:58.575Z,101498.00
2019-05-21T16:25:25.518Z,101499.39
2019-05-21T16:27:52.522Z,101495.52
2019-05-21T16:30:19.547Z,101504.34
2019-05-21T16:32:46.604Z,101499.97
2019-05-21T16:35:13.783Z,101507.45
2019-05-21T16:37:40.868Z,101507.91
2019-05-21T16:40:08.924Z,101507.02
2019-05-21T16:42:37.512Z,101506.95
2019-05-21T16:45:04.943Z,101507.91
2019-05-21T16:47:44.362Z,101508.84
2019-05-21T16:50:04.574Z,101512.19
2019-05-21T16:52:33.650Z,101516.67
2019-05-21T16:55:00.735Z,101517.38
2019-05-21T16:57:27.796Z,101522.08
2019-05-21T16:59:54.754Z,101518.11
2019-05-21T17:02:21.715Z,101516.25
2019-05-21T17:04:48.766Z,101518.11
2019-05-21T17:07:15.844Z,101522.97
2019-05-21T17:09:42.826Z,101520.75
2019-05-21T17:12:09.917Z,101520.81
2019-05-21T17:14:37.997Z,101516.48
2019-05-21T17:17:05.109Z,101519.56
2019-05-21T17:19:33.719Z,101522.73
2019-05-21T17:22:19.279Z,101524.02
2019-05-21T17:24:46.303Z,101521.37
2019-05-21T17:27:13.262Z,101513.88
2019-05-21T17:29:40.223Z,101524.45
2019-05-21T17:32:10.356Z,101521.02
2019-05-21T17:34:37.515Z,101524.64
2019-05-21T17:37:05.612Z,101524.64
2019-05-21T17:39:32.561Z,101523.23
2019-05-21T17:42:13.265Z,101530.77
2019-05-21T17:44:28.560Z,101524.64
2019-05-21T17:46:55.609Z,101531.72
2019-05-21T17:49:22.593Z,101532.71
2019-05-21T17:51:49.564Z,101534.03
2019-05-21T17:54:16.547Z,101526.92
2019-05-21T17:56:43.624Z,101538.47
2019-05-21T17:59:14.736Z,101540.06
2019-05-21T18:01:42.114Z,101528.48
2019-05-21T18:04:09.487Z,101530.27
2019-05-21T18:06:37.415Z,101530.67
2019-05-21T18:09:08.436Z,101526.70
2019-05-21T18:11:35.521Z,101530.67
2019-05-21T18:14:03.249Z,101534.97
2019-05-21T18:16:30.960Z,101536.16
2019-05-21T18:18:58.179Z,101540.98
2019-05-21T18:21:25.956Z,101545.87
2019-05-21T18:23:52.956Z,101547.92
2019-05-21T18:26:19.992Z,101561.61
2019-05-21T18:28:46.929Z,101566.30
2019-05-21T18:31:14.214Z,101568.77
2019-05-21T18:33:41.736Z,101568.27
2019-05-21T18:36:08.730Z,101571.22
2019-05-21T18:38:37.504Z,101575.51
2019-05-21T18:41:04.512Z,101580.26
2019-05-21T18:43:31.460Z,101575.01
2019-05-21T18:45:58.455Z,101580.88
2019-05-21T18:48:25.488Z,101584.00
2019-05-21T18:50:55.432Z,101590.10
2019-05-21T18:53:25.014Z,101585.59
2019-05-21T18:55:52.118Z,101591.16
2019-05-21T18:58:19.175Z,101594.23
2019-05-21T19:00:46.353Z,101593.61
2019-05-21T19:03:13.563Z,101585.96
2019-05-21T19:05:40.713Z,101588.17
2019-05-21T19:08:07.785Z,101594.78
2019-05-21T19:10:34.796Z,101595.59
2019-05-21T19:13:01.901Z,101596.83
2019-05-21T19:15:29.049Z,101603.48
2019-05-21T19:17:56.238Z,101606.08
2019-05-21T19:20:23.373Z,101607.02
2019-05-21T19:22:50.401Z,101606.86
2019-05-21T19:25:17.546Z,101603.31
2019-05-21T19:27:44.521Z,101603.23
2019-05-21T19:30:13.508Z,101604.55
2019-05-21T19:32:40.520Z,101606.69
2019-05-21T19:35:08.740Z,101611.51
2019-05-21T19:37:37.516Z,101614.84
2019-05-21T19:40:05.189Z,101617.78
2019-05-21T19:42:32.187Z,101619.44
2019-05-21T19:44:59.186Z,101616.42
2019-05-21T19:47:26.403Z,101616.30
2019-05-21T19:49:53.393Z,101623.66
2019-05-21T19:52:22.651Z,101623.44
2019-05-21T19:54:49.659Z,101630.64
2019-05-21T19:57:19.340Z,101635.67
2019-05-21T19:59:46.446Z,101639.88
2019-05-21T20:02:14.155Z,101641.54
2019-05-21T20:04:42.240Z,101642.99
2019-05-21T20:07:13.437Z,101644.99
2019-05-21T20:09:41.766Z,101646.73
2019-05-21T20:12:09.155Z,101647.12
2019-05-21T20:14:36.230Z,101647.88
2019-05-21T20:17:04.026Z,101663.34
2019-05-21T20:19:31.557Z,101658.91
2019-05-21T20:21:58.533Z,101663.72
2019-05-21T20:24:26.055Z,101664.70
2019-05-21T20:26:53.653Z,101661.08
2019-05-21T20:29:21.332Z,101669.00
2019-05-21T20:31:48.689Z,101673.76
2019-05-21T20:34:17.506Z,101673.81
2019-05-21T20:36:45.589Z,101682.91
2019-05-21T20:39:15.848Z,101678.86
2019-05-21T20:41:43.531Z,101678.44
2019-05-21T20:44:13.730Z,101682.73
2019-05-21T20:46:41.291Z,101685.41
2019-05-21T20:49:09.629Z,101684.00
2019-05-21T20:51:37.557Z,101685.45
2019-05-21T20:54:05.428Z,101692.77
2019-05-21T20:56:33.450Z,101687.44
2019-05-21T20:59:00.441Z,101687.91
2019-05-21T21:01:27.555Z,101689.23
2019-05-21T21:03:55.241Z,101691.78
2019-05-21T21:06:34.747Z,101691.73
2019-05-21T21:08:51.724Z,101686.45
2019-05-21T21:11:18.821Z,101689.14
2019-05-21T21:13:47.846Z,101693.72
2019-05-21T21:16:17.310Z,101696.30
2019-05-21T21:18:44.551Z,101693.24
2019-05-21T21:21:11.818Z,101685.09
2019-05-21T21:23:40.169Z,101690.33
2019-05-21T21:26:08.295Z,101687.78
2019-05-21T21:28:35.429Z,101688.30
2019-05-21T21:31:02.903Z,101693.86
2019-05-21T21:33:30.131Z,101694.98
2019-05-21T21:35:57.223Z,101695.60
2019-05-21T21:38:26.672Z,101693.62
2019-05-21T21:40:53.870Z,101695.73
2019-05-21T21:43:22.407Z,101697.91
2019-05-21T21:45:49.718Z,101694.84
2019-05-21T21:48:17.045Z,101706.19
2019-05-21T21:50:44.277Z,101699.22
2019-05-21T21:53:11.478Z,101700.06
2019-05-21T21:55:38.492Z,101699.08
2019-05-21T21:58:05.601Z,101703.60
2019-05-21T22:01:23.826Z,101709.20
2019-05-21T22:03:51.253Z,101710.14
2019-05-21T22:06:19.733Z,101707.88
2019-05-21T22:08:46.947Z,101706.56
2019-05-21T22:11:16.625Z,101704.41
2019-05-21T22:13:44.949Z,101706.09
2019-05-21T22:16:12.182Z,101704.30
2019-05-21T22:18:39.655Z,101702.28
2019-05-21T22:21:07.672Z,101702.14
2019-05-21T22:23:35.268Z,101704.11
2019-05-21T22:26:02.244Z,101700.58
2019-05-21T22:28:29.513Z,101697.94
2019-05-21T22:30:56.635Z,101707.79
2019-05-21T22:33:23.798Z,101695.92
2019-05-21T22:35:50.820Z,101695.97
2019-05-21T22:38:17.839Z,101699.26
2019-05-21T22:40:44.854Z,101705.38
2019-05-21T22:43:13.187Z,101702.27
2019-05-21T22:45:40.350Z,101697.19
2019-05-21T22:48:07.406Z,101702.74
2019-05-21T22:50:36.192Z,101703.78
2019-05-21T22:53:03.491Z,101701.19
2019-05-21T22:55:30.458Z,101700.05
2019-05-21T22:57:58.874Z,101705.42
2019-05-21T23:00:27.020Z,101710.50
2019-05-21T23:02:54.724Z,101709.61
2019-05-21T23:05:23.112Z,101709.98
2019-05-21T23:07:50.384Z,101706.50
2019-05-21T23:10:17.956Z,101708.71
2019-05-21T23:12:44.973Z,101705.09
2019-05-21T23:15:24.538Z,101711.50
2019-05-21T23:17:42.193Z,101705.94
2019-05-21T23:20:11.672Z,101707.26
2019-05-21T23:22:39.876Z,101704.39
2019-05-21T23:25:07.241Z,101705.23
2019-05-21T23:27:34.590Z,101699.20
2019-05-21T23:30:02.660Z,101698.13
2019-05-21T23:32:31.685Z,101704.71
2019-05-21T23:34:59.065Z,101706.88
2019-05-21T23:37:26.657Z,101709.94
2019-05-21T23:39:55.222Z,101705.98
2019-05-21T23:42:29.544Z,101709.61
2019-05-21T23:44:52.474Z,101713.23
2019-05-21T23:47:20.042Z,101710.45
2019-05-21T23:49:47.002Z,101711.89
2019-05-21T23:52:14.196Z,101705.35
2019-05-21T23:54:41.196Z,101710.05
2019-05-21T23:57:11.009Z,101710.89
2019-05-21T23:59:39.908Z,101712.27
